createdAt,value
2023-03-27T00:00:35.497Z,65.63
2023-03-27T00:03:18.776Z,66.65
2023-03-27T00:06:09.434Z,66.07
2023-03-27T00:08:53.641Z,64.10
2023-03-27T00:11:42.367Z,65.75
2023-03-27T00:14:25.001Z,63.75
2023-03-27T00:17:13.422Z,63.92
2023-03-27T00:19:55.727Z,59.33
2023-03-27T00:22:44.437Z,57.25
2023-03-27T00:25:27.886Z,57.33
2023-03-27T00:28:16.415Z,54.90
2023-03-27T00:30:59.594Z,55.80
2023-03-27T00:33:49.355Z,54.90
2023-03-27T00:36:39.361Z,51.03
2023-03-27T00:39:28.954Z,44.47
2023-03-27T00:42:11.426Z,42.15
2023-03-27T00:45:00.576Z,44.10
2023-03-27T00:47:49.405Z,40.65
2023-03-27T00:50:44.317Z,41.75
2023-03-27T00:53:36.372Z,38.65
2023-03-27T00:56:26.322Z,36.90
2023-03-27T00:59:15.339Z,34.67
2023-03-27T01:02:05.359Z,34.53
2023-03-27T01:04:49.004Z,33.30
2023-03-27T01:07:37.388Z,33.00
2023-03-27T01:10:27.166Z,33.17
2023-03-27T01:13:27.437Z,33.22
2023-03-27T01:16:18.520Z,32.25
2023-03-27T01:19:32.409Z,33.38
2023-03-27T01:22:41.826Z,33.80
2023-03-27T01:25:57.482Z,33.08
2023-03-27T01:28:45.679Z,33.22
2023-03-27T01:31:45.488Z,32.50
2023-03-27T01:34:43.727Z,33.80
2023-03-27T01:38:17.429Z,34.33
2023-03-27T01:41:17.392Z,33.35
2023-03-27T01:44:43.380Z,33.42
2023-03-27T01:47:42.793Z,32.85
2023-03-27T01:50:57.556Z,35.97
2023-03-27T01:53:55.320Z,33.92
2023-03-27T01:56:53.521Z,32.63
2023-03-27T02:00:18.583Z,31.38
2023-03-27T02:03:35.365Z,29.77
2023-03-27T02:06:44.365Z,26.88
2023-03-27T02:09:42.658Z,26.23
2023-03-27T02:12:32.423Z,26.75
2023-03-27T02:15:24.111Z,26.65
2023-03-27T02:18:17.405Z,26.52
2023-03-27T02:21:00.852Z,25.10
2023-03-27T02:23:51.321Z,24.77
2023-03-27T02:26:41.653Z,23.63
2023-03-27T02:29:58.374Z,20.65
2023-03-27T02:32:49.421Z,19.02
2023-03-27T02:35:42.387Z,19.75
2023-03-27T02:38:33.444Z,20.60
2023-03-27T02:41:41.780Z,19.48
2023-03-27T02:44:32.728Z,18.83
2023-03-27T02:47:37.432Z,19.55
2023-03-27T02:51:08.816Z,20.30
2023-03-27T02:54:03.360Z,21.88
2023-03-27T02:57:00.059Z,21.23
2023-03-27T03:00:05.411Z,20.77
2023-03-27T03:02:54.466Z,19.88
2023-03-27T03:05:45.433Z,19.05
2023-03-27T03:08:39.438Z,19.02
2023-03-27T03:11:22.309Z,18.30
2023-03-27T03:14:10.622Z,19.88
2023-03-27T03:16:53.433Z,18.45
2023-03-27T03:19:42.427Z,21.15
2023-03-27T03:22:24.632Z,20.60
2023-03-27T03:25:16.430Z,18.40
2023-03-27T03:28:01.456Z,18.90
2023-03-27T03:30:53.384Z,17.95
2023-03-27T03:33:37.172Z,19.60
2023-03-27T03:36:26.369Z,19.30
2023-03-27T03:39:08.765Z,19.00
2023-03-27T03:42:02.378Z,18.70
2023-03-27T03:44:51.690Z,18.55
2023-03-27T03:47:47.293Z,17.58
2023-03-27T03:50:38.368Z,17.83
2023-03-27T03:53:22.809Z,19.92
2023-03-27T03:56:11.365Z,19.35
2023-03-27T04:01:49.330Z,18.63
2023-03-27T04:04:46.504Z,20.10
2023-03-27T04:07:45.312Z,19.83
2023-03-27T04:10:55.462Z,22.83
2023-03-27T04:13:55.479Z,22.65
2023-03-27T04:16:50.312Z,25.13
2023-03-27T04:19:41.398Z,24.02
2023-03-27T04:22:24.648Z,26.63
2023-03-27T04:25:15.461Z,25.60
2023-03-27T04:27:58.650Z,24.55
2023-03-27T04:30:58.652Z,21.77
2023-03-27T04:34:04.117Z,25.60
2023-03-27T04:37:23.093Z,26.48
2023-03-27T04:40:21.966Z,22.63
2023-03-27T04:43:10.379Z,19.08
2023-03-27T04:45:52.598Z,20.48
2023-03-27T04:48:42.417Z,22.15
2023-03-27T04:51:42.366Z,19.70
2023-03-27T04:54:32.839Z,22.08
2023-03-27T04:57:15.320Z,23.60
2023-03-27T05:03:02.488Z,21.05
2023-03-27T05:06:00.621Z,15.10
2023-03-27T05:08:52.441Z,14.45
2023-03-27T05:11:46.394Z,13.30
2023-03-27T05:14:30.664Z,7.10
2023-03-27T05:17:20.354Z,8.90
2023-03-27T05:20:02.886Z,9.02
2023-03-27T05:22:52.353Z,9.93
2023-03-27T05:25:44.287Z,10.43
2023-03-27T05:28:34.308Z,9.00
2023-03-27T05:31:23.458Z,8.77
2023-03-27T05:34:29.700Z,6.72
2023-03-27T05:37:20.332Z,5.72
2023-03-27T05:40:23.095Z,5.65
2023-03-27T05:43:13.342Z,5.90
2023-03-27T05:45:55.788Z,6.75
2023-03-27T05:48:46.788Z,6.13
2023-03-27T05:51:37.013Z,5.82
2023-03-27T05:54:20.352Z,5.55
2023-03-27T05:57:14.401Z,5.50
2023-03-27T06:00:02.822Z,5.65
2023-03-27T06:02:57.537Z,6.80
2023-03-27T06:06:02.129Z,5.95
2023-03-27T06:08:52.399Z,6.38
2023-03-27T06:11:35.693Z,6.90
2023-03-27T06:14:24.406Z,5.55
2023-03-27T06:17:26.858Z,6.03
2023-03-27T06:20:20.316Z,6.25
2023-03-27T06:23:14.298Z,5.82
2023-03-27T06:26:03.657Z,4.65
2023-03-27T06:28:47.361Z,5.00
2023-03-27T06:31:37.227Z,4.32
2023-03-27T06:34:26.404Z,4.72
2023-03-27T06:37:37.832Z,5.30
2023-03-27T06:40:33.362Z,5.63
2023-03-27T06:43:25.422Z,5.20
2023-03-27T06:46:27.583Z,4.40
2023-03-27T06:49:46.374Z,6.22
2023-03-27T06:52:38.345Z,3.92
2023-03-27T06:55:41.733Z,4.53
2023-03-27T06:58:31.366Z,4.28
2023-03-27T07:01:15.685Z,5.28
2023-03-27T07:04:44.254Z,4.30
2023-03-27T07:07:35.657Z,4.22
2023-03-27T07:13:17.358Z,4.38
2023-03-27T07:16:05.837Z,4.40
2023-03-27T07:18:49.322Z,4.10
2023-03-27T07:21:33.199Z,3.95
2023-03-27T07:24:25.402Z,4.35
2023-03-27T07:27:13.612Z,4.30
2023-03-27T07:29:56.402Z,4.45
2023-03-27T07:32:49.844Z,3.90
2023-03-27T07:35:33.570Z,3.60
2023-03-27T07:38:35.343Z,3.00
2023-03-27T07:41:39.388Z,3.03
2023-03-27T07:44:30.710Z,3.05
2023-03-27T07:47:22.352Z,2.25
2023-03-27T07:50:07.389Z,2.85
2023-03-27T07:52:57.399Z,2.90
2023-03-27T07:55:47.281Z,3.65
2023-03-27T07:58:30.473Z,3.55
2023-03-27T08:01:12.712Z,3.80
2023-03-27T08:04:02.494Z,4.10
2023-03-27T08:06:54.315Z,4.00
2023-03-27T08:09:37.630Z,3.75
2023-03-27T08:12:27.315Z,3.90
2023-03-27T08:15:10.608Z,3.40
2023-03-27T08:18:04.471Z,3.40
2023-03-27T08:20:46.649Z,3.65
2023-03-27T08:23:38.346Z,2.90
2023-03-27T08:26:39.580Z,3.38
2023-03-27T08:29:28.350Z,4.18
2023-03-27T08:32:21.401Z,3.90
2023-03-27T08:35:10.615Z,3.72
2023-03-27T08:37:54.506Z,3.95
2023-03-27T08:43:52.414Z,3.58
2023-03-27T08:47:08.262Z,3.30
2023-03-27T08:50:18.335Z,5.47
2023-03-27T08:53:31.775Z,3.17
2023-03-27T08:56:25.437Z,3.33
2023-03-27T08:59:21.639Z,3.20
2023-03-27T09:02:24.394Z,3.55
2023-03-27T09:05:37.579Z,3.40
2023-03-27T09:08:32.436Z,2.88
2023-03-27T09:11:21.918Z,3.85
2023-03-27T09:14:13.346Z,3.65
2023-03-27T09:17:05.825Z,3.75
2023-03-27T09:19:54.340Z,4.18
2023-03-27T09:22:45.296Z,3.20
2023-03-27T09:26:03.444Z,3.50
2023-03-27T09:29:24.307Z,3.42
2023-03-27T09:32:33.677Z,4.20
2023-03-27T09:35:25.772Z,4.32
2023-03-27T09:38:11.284Z,4.32
2023-03-27T09:41:10.725Z,4.70
2023-03-27T09:44:14.342Z,3.53
2023-03-27T09:47:22.190Z,3.60
2023-03-27T09:50:38.606Z,3.40
2023-03-27T09:53:44.100Z,5.30
2023-03-27T09:56:37.412Z,5.18
2023-03-27T09:59:45.393Z,5.60
2023-03-27T10:02:32.677Z,5.78
2023-03-27T10:05:33.671Z,4.38
2023-03-27T10:08:53.861Z,4.93
2023-03-27T10:11:48.426Z,5.30
2023-03-27T10:17:53.536Z,6.43
2023-03-27T10:20:43.606Z,5.10
2023-03-27T10:23:47.373Z,5.05
2023-03-27T10:27:00.287Z,5.13
2023-03-27T10:29:52.379Z,5.13
2023-03-27T10:32:48.969Z,5.10
2023-03-27T10:36:05.384Z,6.18
2023-03-27T10:39:04.295Z,6.60
2023-03-27T10:41:58.671Z,5.88
2023-03-27T10:44:51.386Z,5.20
2023-03-27T10:47:40.587Z,6.07
2023-03-27T10:50:38.325Z,6.30
2023-03-27T10:53:40.322Z,6.03
2023-03-27T10:56:40.349Z,5.55
2023-03-27T10:59:41.603Z,6.57
2023-03-27T11:03:21.270Z,6.63
2023-03-27T11:06:14.628Z,6.25
2023-03-27T11:09:34.358Z,6.32
2023-03-27T11:12:21.724Z,7.00
2023-03-27T11:15:27.303Z,6.47
2023-03-27T11:24:19.594Z,7.05
2023-03-27T11:27:31.284Z,5.85
2023-03-27T11:30:26.758Z,6.93
2023-03-27T11:33:42.292Z,6.65
2023-03-27T11:36:49.410Z,7.78
2023-03-27T11:39:57.322Z,6.75
2023-03-27T11:42:43.663Z,6.18
2023-03-27T11:45:35.272Z,5.15
2023-03-27T11:48:47.274Z,4.72
2023-03-27T11:51:43.852Z,4.40
2023-03-27T11:55:14.280Z,4.07
2023-03-27T11:58:21.317Z,4.57
2023-03-27T12:01:27.388Z,3.95
2023-03-27T12:04:24.685Z,4.53
2023-03-27T12:07:36.185Z,4.35
2023-03-27T12:10:38.724Z,4.28
2023-03-27T12:14:02.429Z,4.18
2023-03-27T12:16:56.441Z,4.72
2023-03-27T12:20:13.567Z,3.47
2023-03-27T12:23:10.053Z,4.43
2023-03-27T12:26:51.309Z,4.32
2023-03-27T12:29:58.200Z,4.18
2023-03-27T12:33:12.389Z,4.10
2023-03-27T12:36:06.767Z,4.15
2023-03-27T12:38:51.498Z,3.80
2023-03-27T12:41:50.580Z,3.67
2023-03-27T12:45:13.387Z,3.78
2023-03-27T12:48:17.321Z,3.97
2023-03-27T12:51:00.721Z,3.65
2023-03-27T12:54:00.363Z,3.58
2023-03-27T12:56:51.499Z,3.38
2023-03-27T13:00:11.492Z,3.60
2023-03-27T13:03:12.417Z,3.30
2023-03-27T13:06:23.695Z,3.70
2023-03-27T13:09:27.374Z,3.20
2023-03-27T13:12:36.517Z,3.50
2023-03-27T13:15:39.816Z,3.85
2023-03-27T13:18:52.146Z,3.72
2023-03-27T13:21:53.564Z,3.35
2023-03-27T13:25:00.369Z,4.20
2023-03-27T13:27:58.185Z,4.45
2023-03-27T13:30:56.537Z,4.30
2023-03-27T13:34:42.700Z,4.10
2023-03-27T13:37:38.298Z,3.97
2023-03-27T13:40:39.294Z,3.47
2023-03-27T13:46:41.746Z,4.30
2023-03-27T13:50:14.504Z,4.15
2023-03-27T13:53:33.936Z,4.22
2023-03-27T13:56:52.417Z,4.07
2023-03-27T14:00:23.946Z,4.65
2023-03-27T14:03:48.435Z,4.07
2023-03-27T14:06:45.570Z,5.03
2023-03-27T14:09:55.486Z,4.70
2023-03-27T14:13:10.143Z,4.63
2023-03-27T14:16:18.409Z,4.85
2023-03-27T14:19:14.606Z,4.90
2023-03-27T14:22:12.371Z,4.88
2023-03-27T14:25:13.603Z,5.32
2023-03-27T14:28:09.426Z,6.53
2023-03-27T14:30:55.574Z,5.97
2023-03-27T14:34:05.521Z,6.63
2023-03-27T14:36:53.053Z,6.40
2023-03-27T14:39:50.388Z,5.35
2023-03-27T14:42:49.312Z,6.38
2023-03-27T14:45:47.483Z,5.63
2023-03-27T14:48:47.123Z,6.65
2023-03-27T14:51:35.532Z,6.40
2023-03-27T14:54:28.352Z,6.70
2023-03-27T14:57:26.326Z,6.78
2023-03-27T15:00:30.888Z,7.43
2023-03-27T15:03:24.457Z,6.30
2023-03-27T15:06:28.599Z,6.47
2023-03-27T15:09:20.679Z,7.30
2023-03-27T15:12:14.882Z,7.68
2023-03-27T15:15:07.371Z,7.15
2023-03-27T15:18:07.554Z,7.47
2023-03-27T15:20:51.894Z,8.68
2023-03-27T15:24:08.487Z,7.55
2023-03-27T15:26:51.878Z,7.18
2023-03-27T15:30:06.365Z,8.77
2023-03-27T15:32:56.309Z,7.97
2023-03-27T15:35:52.314Z,8.13
2023-03-27T15:38:38.784Z,7.32
2023-03-27T15:41:40.302Z,7.78
2023-03-27T15:44:29.770Z,8.55
2023-03-27T15:47:33.337Z,8.60
2023-03-27T15:53:41.337Z,7.82
2023-03-27T15:56:47.744Z,8.23
2023-03-27T15:59:51.813Z,8.10
2023-03-27T16:02:42.384Z,8.07
2023-03-27T16:05:25.385Z,8.68
2023-03-27T16:08:16.287Z,8.60
2023-03-27T16:10:59.870Z,9.10
2023-03-27T16:13:52.043Z,9.10
2023-03-27T16:16:44.276Z,8.77
2023-03-27T16:19:27.538Z,9.40
2023-03-27T16:22:16.690Z,10.57
2023-03-27T16:27:55.364Z,9.95
2023-03-27T16:30:40.435Z,11.73
2023-03-27T16:33:18.437Z,10.98
2023-03-27T16:35:48.950Z,10.63
2023-03-27T16:38:20.101Z,10.65
2023-03-27T16:40:50.915Z,10.65
2023-03-27T16:43:21.283Z,10.63
2023-03-27T16:45:51.992Z,11.18
2023-03-27T16:48:24.245Z,10.13
2023-03-27T16:50:54.133Z,11.53
2023-03-27T16:53:23.665Z,9.88
2023-03-27T16:55:58.907Z,10.48
2023-03-27T16:58:29.812Z,10.85
2023-03-27T17:00:59.985Z,10.50
2023-03-27T17:03:30.497Z,11.43
2023-03-27T17:06:05.203Z,11.18
2023-03-27T17:08:36.313Z,12.45
2023-03-27T17:11:13.650Z,11.27
2023-03-27T17:13:44.613Z,11.57
2023-03-27T17:16:14.575Z,10.68
2023-03-27T17:18:44.566Z,11.70
2023-03-27T17:21:14.196Z,13.00
2023-03-27T17:23:45.101Z,12.90
2023-03-27T17:26:16.036Z,12.20
2023-03-27T17:28:46.007Z,13.10
2023-03-27T17:31:16.176Z,13.07
2023-03-27T17:33:46.544Z,12.63
2023-03-27T17:36:23.897Z,15.00
2023-03-27T17:39:02.473Z,16.90
2023-03-27T17:41:33.265Z,13.90
2023-03-27T17:44:03.741Z,14.00
2023-03-27T17:46:34.668Z,13.52
2023-03-27T17:49:04.894Z,13.43
2023-03-27T17:51:36.795Z,12.85
2023-03-27T17:54:07.217Z,13.45
2023-03-27T17:56:38.911Z,13.50
2023-03-27T17:59:11.451Z,14.18
2023-03-27T18:01:42.136Z,12.80
2023-03-27T18:04:13.648Z,14.32
2023-03-27T18:06:44.119Z,12.75
2023-03-27T18:09:15.530Z,13.20
2023-03-27T18:11:46.937Z,15.25
2023-03-27T18:14:17.789Z,14.23
2023-03-27T18:16:47.474Z,14.20
2023-03-27T18:19:17.931Z,13.90
2023-03-27T18:21:48.470Z,14.77
2023-03-27T18:24:18.301Z,14.85
2023-03-27T18:26:49.668Z,15.35
2023-03-27T18:29:22.322Z,16.13
2023-03-27T18:31:53.526Z,17.37
2023-03-27T18:34:24.210Z,16.88
2023-03-27T18:36:55.665Z,20.00
2023-03-27T18:39:25.551Z,18.65
2023-03-27T18:41:56.222Z,19.40
2023-03-27T18:44:26.193Z,20.00
2023-03-27T18:46:56.785Z,21.02
2023-03-27T18:49:26.439Z,21.13
2023-03-27T18:51:56.379Z,22.42
2023-03-27T18:54:26.012Z,22.67
2023-03-27T18:56:55.669Z,22.88
2023-03-27T18:59:25.966Z,25.00
2023-03-27T19:01:56.127Z,26.75
2023-03-27T19:04:25.999Z,26.90
2023-03-27T19:06:55.739Z,28.35
2023-03-27T19:09:38.079Z,30.08
2023-03-27T19:12:12.346Z,31.08
2023-03-27T19:15:09.731Z,31.30
2023-03-27T19:18:10.042Z,30.50
2023-03-27T19:21:01.848Z,31.92
2023-03-27T19:23:44.858Z,31.77
2023-03-27T19:26:20.336Z,32.67
2023-03-27T19:28:50.012Z,33.05
2023-03-27T19:31:20.134Z,31.00
2023-03-27T19:33:49.874Z,30.40
2023-03-27T19:36:19.239Z,31.77
2023-03-27T19:38:49.674Z,34.22
2023-03-27T19:41:19.159Z,33.58
2023-03-27T19:43:48.569Z,34.40
2023-03-27T19:46:18.422Z,33.40
2023-03-27T19:48:50.848Z,31.60
2023-03-27T19:51:29.421Z,30.15
2023-03-27T19:53:58.684Z,30.33
2023-03-27T19:56:29.191Z,31.65
2023-03-27T19:58:58.854Z,29.95
2023-03-27T20:01:29.670Z,29.88
2023-03-27T20:04:00.264Z,31.15
2023-03-27T20:06:30.159Z,29.98
2023-03-27T20:09:01.316Z,29.50
2023-03-27T20:11:30.686Z,30.23
2023-03-27T20:14:00.235Z,30.95
2023-03-27T20:16:31.051Z,31.05
2023-03-27T20:19:04.698Z,31.30
2023-03-27T20:21:37.207Z,31.65
2023-03-27T20:24:10.869Z,30.63
2023-03-27T20:26:43.904Z,30.30
2023-03-27T20:29:19.772Z,29.70
2023-03-27T20:31:49.529Z,30.17
2023-03-27T20:34:20.383Z,29.15
2023-03-27T20:36:54.088Z,28.75
2023-03-27T20:39:39.742Z,29.50
2023-03-27T20:42:16.136Z,30.70
2023-03-27T20:45:00.644Z,30.42
2023-03-27T20:47:40.679Z,31.50
2023-03-27T20:50:10.683Z,29.10
2023-03-27T20:52:40.074Z,29.10
2023-03-27T20:55:17.379Z,29.52
2023-03-27T21:00:22.962Z,29.38
2023-03-27T21:02:52.542Z,28.75
2023-03-27T21:05:21.965Z,31.02
2023-03-27T21:07:53.004Z,30.80
2023-03-27T21:10:22.565Z,30.25
2023-03-27T21:12:52.433Z,34.80
2023-03-27T21:15:21.920Z,31.88
2023-03-27T21:17:51.958Z,32.42
2023-03-27T21:20:21.477Z,30.77
2023-03-27T21:22:53.900Z,32.05
2023-03-27T21:25:24.296Z,32.08
2023-03-27T21:28:01.031Z,32.97
2023-03-27T21:30:47.111Z,36.28
2023-03-27T21:33:18.354Z,32.40
2023-03-27T21:35:49.639Z,33.28
2023-03-27T21:38:20.016Z,31.90
2023-03-27T21:40:49.891Z,33.17
2023-03-27T21:43:18.917Z,32.63
2023-03-27T21:45:50.958Z,32.70
2023-03-27T21:48:20.533Z,31.85
2023-03-27T21:50:49.700Z,32.35
2023-03-27T21:53:19.069Z,32.15
2023-03-27T21:55:48.289Z,33.70
2023-03-27T21:58:18.046Z,31.88
2023-03-27T22:00:47.865Z,34.95
2023-03-27T22:03:18.789Z,32.60
2023-03-27T22:05:57.366Z,32.03
2023-03-27T22:08:41.639Z,35.00
2023-03-27T22:11:12.806Z,33.28
2023-03-27T22:13:44.429Z,31.92
2023-03-27T22:16:17.361Z,32.40
2023-03-27T22:18:46.928Z,32.17
2023-03-27T22:21:24.663Z,33.55
2023-03-27T22:23:56.123Z,34.00
2023-03-27T22:26:30.281Z,32.97
2023-03-27T22:29:00.596Z,33.72
2023-03-27T22:31:30.836Z,33.85
2023-03-27T22:34:00.847Z,33.08
2023-03-27T22:36:29.872Z,35.65
2023-03-27T22:38:59.213Z,35.58
2023-03-27T22:41:28.835Z,36.33
2023-03-27T22:43:58.285Z,35.25
2023-03-27T22:46:27.757Z,36.42
2023-03-27T22:48:59.669Z,34.58
2023-03-27T22:51:32.412Z,34.85
2023-03-27T22:54:02.340Z,33.67
2023-03-27T22:56:31.819Z,34.28
2023-03-27T22:59:00.832Z,34.97
2023-03-27T23:01:30.323Z,37.88
2023-03-27T23:03:59.533Z,35.97
2023-03-27T23:06:28.886Z,37.78
2023-03-27T23:08:58.281Z,38.20
2023-03-27T23:11:27.419Z,37.55
2023-03-27T23:13:56.807Z,37.88
2023-03-27T23:16:26.570Z,37.13
2023-03-27T23:18:56.499Z,37.38
2023-03-27T23:21:25.499Z,36.25
2023-03-27T23:23:54.836Z,37.83
2023-03-27T23:26:24.031Z,37.60
2023-03-27T23:28:53.333Z,36.60
2023-03-27T23:31:23.037Z,38.97
2023-03-27T23:33:52.816Z,38.33
2023-03-27T23:36:24.820Z,38.75
2023-03-27T23:38:55.112Z,37.75
2023-03-27T23:41:25.081Z,37.45
2023-03-27T23:43:55.066Z,39.22
2023-03-27T23:46:24.454Z,40.30
2023-03-27T23:48:54.072Z,42.08
2023-03-27T23:51:23.660Z,40.00
2023-03-27T23:53:53.008Z,42.65
2023-03-27T23:56:22.886Z,40.35
2023-03-27T23:58:52.230Z,39.10
